createdAt,value
2019-05-05T00:01:17.952Z,100164.57
2019-05-05T00:02:40.049Z,100164.28
2019-05-05T00:03:48.666Z,100171.27
2019-05-05T00:04:57.462Z,100164.62
2019-05-05T00:06:05.290Z,100172.13
2019-05-05T00:07:09.611Z,100163.80
2019-05-05T00:08:15.264Z,100167.41
2019-05-05T00:09:20.643Z,100170.22
2019-05-05T00:10:26.867Z,100164.95
2019-05-05T00:11:51.017Z,100168.02
2019-05-05T00:12:59.742Z,100164.95
2019-05-05T00:15:59.311Z,100168.73
2019-05-05T00:17:21.503Z,100165.09
2019-05-05T00:18:27.236Z,100159.76
2019-05-05T00:19:33.327Z,100164.19
2019-05-05T00:20:37.713Z,100158.89
2019-05-05T00:21:42.024Z,100164.12
2019-05-05T00:22:46.269Z,100155.79
2019-05-05T00:23:50.506Z,100159.44
2019-05-05T00:24:54.751Z,100162.16
2019-05-05T00:25:58.934Z,100162.45
2019-05-05T00:27:04.273Z,100165.48
2019-05-05T00:28:08.586Z,100162.45
2019-05-05T00:29:14.882Z,100165.48
2019-05-05T00:30:19.581Z,100164.33
2019-05-05T00:31:24.324Z,100164.59
2019-05-05T00:32:28.781Z,100172.64
2019-05-05T00:33:34.331Z,100165.11
2019-05-05T00:34:39.056Z,100164.81
2019-05-05T00:35:45.194Z,100171.16
2019-05-05T00:36:49.721Z,100170.05
2019-05-05T00:37:54.498Z,100168.66
2019-05-05T00:38:59.566Z,100172.83
2019-05-05T00:40:05.477Z,100176.13
2019-05-05T00:41:09.649Z,100171.41
2019-05-05T00:42:15.435Z,100178.61
2019-05-05T00:43:20.099Z,100174.73
2019-05-05T00:44:24.783Z,100184.98
2019-05-05T00:45:30.115Z,100184.98
2019-05-05T00:46:44.768Z,100196.94
2019-05-05T00:47:50.627Z,100189.96
2019-05-05T00:48:55.107Z,100197.09
2019-05-05T00:49:59.676Z,100194.25
2019-05-05T00:51:04.766Z,100201.78
2019-05-05T00:52:09.384Z,100202.62
2019-05-05T00:53:14.576Z,100200.91
2019-05-05T00:54:19.693Z,100194.25
2019-05-05T00:55:24.416Z,100206.20
2019-05-05T00:56:30.103Z,100204.78
2019-05-05T00:57:34.849Z,100201.61
2019-05-05T00:58:40.958Z,100203.55
2019-05-05T00:59:45.384Z,100201.61
2019-05-05T01:00:51.209Z,100206.09
2019-05-05T01:02:15.195Z,100201.12
2019-05-05T01:03:21.450Z,100203.91
2019-05-05T01:04:36.405Z,100176.72
2019-05-05T01:05:55.306Z,100201.38
2019-05-05T01:07:00.843Z,100204.38
2019-05-05T01:08:06.669Z,100201.53
2019-05-05T01:09:14.771Z,100200.08
2019-05-05T01:10:18.446Z,100205.63
2019-05-05T01:11:25.063Z,100203.95
2019-05-05T01:12:29.142Z,100213.96
2019-05-05T01:13:35.176Z,100218.61
2019-05-05T01:14:39.523Z,100215.83
2019-05-05T01:15:44.828Z,100210.56
2019-05-05T01:16:49.603Z,100223.39
2019-05-05T01:17:55.278Z,100220.29
2019-05-05T01:19:00.890Z,100222.55
2019-05-05T01:20:07.101Z,100227.01
2019-05-05T01:21:11.597Z,100231.73
2019-05-05T01:22:15.857Z,100235.34
2019-05-05T01:23:20.095Z,100235.89
2019-05-05T01:24:24.879Z,100237.28
2019-05-05T01:25:29.897Z,100240.53
2019-05-05T01:26:35.350Z,100243.56
2019-05-05T01:27:39.711Z,100243.56
2019-05-05T01:28:47.325Z,100246.59
2019-05-05T01:29:51.761Z,100253.55
2019-05-05T01:30:58.011Z,100257.70
2019-05-05T01:32:05.029Z,100249.38
2019-05-05T01:33:20.160Z,100255.48
2019-05-05T01:34:26.209Z,100256.32
2019-05-05T01:35:30.384Z,100257.92
2019-05-05T01:36:35.815Z,100261.80
2019-05-05T01:37:44.598Z,100267.35
2019-05-05T01:38:50.407Z,100265.55
2019-05-05T01:39:56.274Z,100270.02
2019-05-05T01:41:04.806Z,100268.63
2019-05-05T01:42:10.949Z,100271.36
2019-05-05T01:43:15.284Z,100280.23
2019-05-05T01:44:19.802Z,100280.23
2019-05-05T01:45:24.257Z,100282.72
2019-05-05T01:46:28.586Z,100286.63
2019-05-05T01:47:34.599Z,100287.43
2019-05-05T01:48:39.230Z,100286.59
2019-05-05T01:49:45.498Z,100289.66
2019-05-05T01:50:50.128Z,100285.50
2019-05-05T01:51:55.264Z,100287.98
2019-05-05T01:52:59.539Z,100287.64
2019-05-05T01:54:05.304Z,100292.03
2019-05-05T01:55:10.351Z,100295.89
2019-05-05T01:56:15.459Z,100292.03
2019-05-05T01:57:19.684Z,100288.41
2019-05-05T01:58:24.478Z,100295.67
2019-05-05T01:59:29.678Z,100297.28
2019-05-05T02:00:34.850Z,100293.12
2019-05-05T02:01:39.253Z,100295.89
2019-05-05T02:02:44.878Z,100291.64
2019-05-05T02:03:49.210Z,100293.88
2019-05-05T02:04:55.357Z,100294.72
2019-05-05T02:05:59.521Z,100293.33
2019-05-05T02:07:05.525Z,100291.94
2019-05-05T02:08:09.907Z,100290.80
2019-05-05T02:09:15.921Z,100292.19
2019-05-05T02:10:20.355Z,100298.04
2019-05-05T02:11:24.907Z,100304.98
2019-05-05T02:12:30.034Z,100311.63
2019-05-05T02:13:34.657Z,100305.52
2019-05-05T02:14:38.959Z,100308.84
2019-05-05T02:15:44.600Z,100313.02
2019-05-05T02:16:48.866Z,100310.23
2019-05-05T02:17:55.064Z,100319.41
2019-05-05T02:18:59.663Z,100317.43
2019-05-05T02:20:05.359Z,100319.78
2019-05-05T02:21:09.904Z,100325.04
2019-05-05T02:22:14.743Z,100326.48
2019-05-05T02:23:20.072Z,100323.06
2019-05-05T02:24:25.124Z,100324.70
2019-05-05T02:25:29.622Z,100324.70
2019-05-05T02:26:35.024Z,100328.86
2019-05-05T02:27:39.655Z,100329.70
2019-05-05T02:28:51.494Z,100326.92
2019-05-05T02:29:57.482Z,100334.71
2019-05-05T02:31:09.735Z,100331.94
2019-05-05T02:32:18.459Z,100333.88
2019-05-05T02:33:25.924Z,100335.80
2019-05-05T02:34:30.744Z,100333.28
2019-05-05T02:35:35.403Z,100334.37
2019-05-05T02:36:39.972Z,100339.03
2019-05-05T02:37:45.687Z,100336.47
2019-05-05T02:38:56.455Z,100345.64
2019-05-05T02:40:06.297Z,100346.73
2019-05-05T02:41:05.565Z,100348.12
2019-05-05T02:42:09.984Z,100344.20
2019-05-05T02:43:15.310Z,100345.89
2019-05-05T02:44:19.698Z,100342.27
2019-05-05T02:45:55.104Z,100340.34
2019-05-05T02:47:04.768Z,100339.74
2019-05-05T02:48:14.875Z,100344.12
2019-05-05T02:49:17.229Z,100342.98
2019-05-05T02:50:24.929Z,100340.16
2019-05-05T02:51:27.972Z,100338.48
2019-05-05T02:52:34.683Z,100349.88
2019-05-05T02:53:40.409Z,100346.50
2019-05-05T02:54:44.736Z,100346.20
2019-05-05T02:55:48.906Z,100349.44
2019-05-05T02:56:54.179Z,100348.11
2019-05-05T02:57:58.627Z,100346.72
2019-05-05T02:59:04.451Z,100351.76
2019-05-05T03:00:16.142Z,100347.59
2019-05-05T03:01:30.886Z,100347.64
2019-05-05T03:02:36.887Z,100353.98
2019-05-05T03:03:41.447Z,100348.11
2019-05-05T03:04:45.691Z,100347.71
2019-05-05T03:05:49.993Z,100342.16
2019-05-05T03:06:54.887Z,100346.57
2019-05-05T03:07:59.147Z,100339.09
2019-05-05T03:09:05.949Z,100350.44
2019-05-05T03:10:14.060Z,100351.48
2019-05-05T03:11:18.339Z,100355.39
2019-05-05T03:12:24.275Z,100345.44
2019-05-05T03:13:29.992Z,100350.44
2019-05-05T03:14:34.462Z,100350.73
2019-05-05T03:15:52.288Z,100349.34
2019-05-05T03:16:56.890Z,100350.98
2019-05-05T03:18:01.064Z,100351.52
2019-05-05T03:19:06.552Z,100352.91
2019-05-05T03:20:10.786Z,100355.69
2019-05-05T03:21:15.146Z,100351.52
2019-05-05T03:22:19.552Z,100348.45
2019-05-05T03:23:24.098Z,100347.83
2019-05-05T03:24:28.437Z,100355.39
2019-05-05T03:25:34.694Z,100355.39
2019-05-05T03:26:38.842Z,100358.46
2019-05-05T03:27:44.542Z,100359.30
2019-05-05T03:28:54.815Z,100364.25
2019-05-05T03:30:00.018Z,100364.80
2019-05-05T03:31:05.164Z,100366.48
2019-05-05T03:32:11.617Z,100365.34
2019-05-05T03:33:16.364Z,100373.97
2019-05-05T03:34:20.828Z,100372.80
2019-05-05T03:35:25.159Z,100368.03
2019-05-05T03:36:29.330Z,100372.20
2019-05-05T03:37:34.397Z,100369.97
2019-05-05T03:38:38.718Z,100372.44
2019-05-05T03:39:44.596Z,100373.58
2019-05-05T03:40:50.367Z,100376.36
2019-05-05T03:42:11.178Z,100378.54
2019-05-05T03:43:17.016Z,100385.83
2019-05-05T03:44:24.154Z,100381.31
2019-05-05T03:45:34.201Z,100385.17
2019-05-05T03:46:38.584Z,100388.49
2019-05-05T03:47:44.063Z,100383.48
2019-05-05T03:48:48.637Z,100390.91
2019-05-05T03:49:53.575Z,100392.60
2019-05-05T03:50:57.979Z,100392.84
2019-05-05T03:52:02.154Z,100395.38
2019-05-05T03:53:06.319Z,100398.75
2019-05-05T03:54:10.622Z,100389.28
2019-05-05T03:55:14.934Z,100398.15
2019-05-05T03:56:19.131Z,100400.03
2019-05-05T03:57:24.634Z,100393.30
2019-05-05T03:58:29.185Z,100405.58
2019-05-05T03:59:33.663Z,100412.20
2019-05-05T04:01:00.513Z,100410.82
2019-05-05T04:02:10.399Z,100413.89
2019-05-05T04:03:14.786Z,100417.07
2019-05-05T04:04:25.819Z,100399.42
2019-05-05T04:05:34.520Z,100422.27
2019-05-05T04:06:38.750Z,100417.20
2019-05-05T04:07:44.038Z,100416.91
2019-05-05T04:08:48.690Z,100408.09
2019-05-05T04:09:54.226Z,100415.81
2019-05-05T04:10:58.680Z,100418.34
2019-05-05T04:12:04.451Z,100420.03
2019-05-05T04:13:08.876Z,100420.88
2019-05-05T04:14:14.207Z,100417.31
2019-05-05T04:15:19.434Z,100411.47
2019-05-05T04:16:25.245Z,100412.86
2019-05-05T04:17:33.548Z,100417.50
2019-05-05T04:18:39.212Z,100420.58
2019-05-05T04:19:48.061Z,100419.98
2019-05-05T04:20:53.477Z,100426.91
2019-05-05T04:21:58.113Z,100430.44
2019-05-05T04:23:03.816Z,100431.31
2019-05-05T04:24:08.110Z,100434.30
2019-05-05T04:25:13.913Z,100428.45
2019-05-05T04:26:18.472Z,100433.64
2019-05-05T04:27:23.858Z,100439.73
2019-05-05T04:28:30.623Z,100446.13
2019-05-05T04:29:35.367Z,100440.06
2019-05-05T04:30:39.927Z,100439.53
2019-05-05T04:31:44.131Z,100450.16
2019-05-05T04:32:51.428Z,100443.47
2019-05-05T04:33:55.798Z,100444.32
2019-05-05T04:34:59.972Z,100446.25
2019-05-05T04:36:04.746Z,100445.61
2019-05-05T04:37:09.286Z,100444.32
2019-05-05T04:38:14.019Z,100449.02
2019-05-05T04:39:18.497Z,100451.01
2019-05-05T04:40:24.069Z,100454.08
2019-05-05T04:41:28.633Z,100450.22
2019-05-05T04:42:33.687Z,100451.91
2019-05-05T04:43:37.920Z,100456.37
2019-05-05T04:44:44.657Z,100452.81
2019-05-05T04:45:48.633Z,100453.41
2019-05-05T04:46:54.705Z,100450.64
2019-05-05T04:48:06.206Z,100458.05
2019-05-05T04:49:14.750Z,100459.44
2019-05-05T04:50:36.499Z,100452.81
2019-05-05T04:51:47.702Z,100458.11
2019-05-05T04:52:49.510Z,100456.91
2019-05-05T04:54:11.176Z,100459.14
2019-05-05T04:55:15.412Z,100460.83
2019-05-05T04:56:19.787Z,100461.38
2019-05-05T04:57:24.133Z,100456.61
2019-05-05T04:58:28.606Z,100454.98
2019-05-05T04:59:34.007Z,100460.34
2019-05-05T05:00:38.368Z,100454.34
2019-05-05T05:01:44.100Z,100460.10
2019-05-05T05:02:57.268Z,100449.01
2019-05-05T05:04:09.039Z,100452.12
2019-05-05T05:05:18.396Z,100458.02
2019-05-05T05:06:24.588Z,100457.78
2019-05-05T05:07:28.749Z,100460.61
2019-05-05T05:08:33.791Z,100458.44
2019-05-05T05:09:38.040Z,100463.20
2019-05-05T05:10:43.802Z,100464.13
2019-05-05T05:11:48.266Z,100460.27
2019-05-05T05:12:54.028Z,100460.86
2019-05-05T05:13:58.420Z,100458.39
2019-05-05T05:15:04.302Z,100465.44
2019-05-05T05:16:08.648Z,100468.84
2019-05-05T05:17:14.736Z,100461.12
2019-05-05T05:18:20.480Z,100463.10
2019-05-05T05:19:24.916Z,100466.77
2019-05-05T05:20:29.813Z,100466.23
2019-05-05T05:21:34.329Z,100458.75
2019-05-05T05:22:38.502Z,100465.45
2019-05-05T05:23:44.390Z,100465.74
2019-05-05T05:24:49.140Z,100459.98
2019-05-05T05:25:54.409Z,100458.95
2019-05-05T05:26:58.819Z,100456.47
2019-05-05T05:28:04.197Z,100461.02
2019-05-05T05:29:08.554Z,100461.07
2019-05-05T05:30:13.720Z,100460.93
2019-05-05T05:31:19.291Z,100458.23
2019-05-05T05:32:24.712Z,100454.97
2019-05-05T05:33:30.667Z,100453.97
2019-05-05T05:34:35.111Z,100452.83
2019-05-05T05:35:39.632Z,100450.95
2019-05-05T05:36:44.376Z,100452.03
2019-05-05T05:37:48.809Z,100453.53
2019-05-05T05:38:55.056Z,100458.88
2019-05-05T05:40:10.100Z,100454.85
2019-05-05T05:41:16.115Z,100457.37
2019-05-05T05:42:20.312Z,100461.59
2019-05-05T05:43:29.094Z,100462.48
2019-05-05T05:44:37.923Z,100462.58
2019-05-05T05:45:49.826Z,100470.45
2019-05-05T05:46:55.701Z,100474.13
2019-05-05T05:48:07.387Z,100472.14
2019-05-05T05:49:24.098Z,100477.65
2019-05-05T05:50:29.849Z,100473.53
2019-05-05T05:51:34.630Z,100475.09
2019-05-05T05:52:38.849Z,100474.85
2019-05-05T05:53:43.903Z,100479.66
2019-05-05T05:54:48.205Z,100481.39
2019-05-05T05:55:53.774Z,100480.63
2019-05-05T05:56:58.426Z,100480.69
2019-05-05T05:58:04.591Z,100484.35
2019-05-05T05:59:08.519Z,100490.75
2019-05-05T06:00:14.491Z,100490.11
2019-05-05T06:01:18.921Z,100479.41
2019-05-05T06:02:24.198Z,100496.05
2019-05-05T06:03:28.800Z,100493.03
2019-05-05T06:04:34.058Z,100495.34
2019-05-05T06:05:38.319Z,100494.34
2019-05-05T06:06:44.146Z,100496.70
2019-05-05T06:07:48.597Z,100500.41
2019-05-05T06:08:54.396Z,100497.13
2019-05-05T06:09:58.746Z,100501.42
2019-05-05T06:11:04.465Z,100506.78
2019-05-05T06:12:08.775Z,100505.98
2019-05-05T06:13:15.435Z,100504.93
2019-05-05T06:14:19.048Z,100508.85
2019-05-05T06:15:24.407Z,100501.72
2019-05-05T06:16:28.796Z,100498.44
2019-05-05T06:17:34.361Z,100496.30
2019-05-05T06:18:38.685Z,100502.22
2019-05-05T06:19:44.605Z,100498.69
2019-05-05T06:20:50.064Z,100503.95
2019-05-05T06:21:54.475Z,100496.48
2019-05-05T06:22:58.769Z,100506.89
2019-05-05T06:24:04.483Z,100495.52
2019-05-05T06:25:08.898Z,100501.70
2019-05-05T06:26:15.207Z,100501.23
2019-05-05T06:27:19.338Z,100503.84
2019-05-05T06:28:23.809Z,100515.05
2019-05-05T06:29:28.011Z,100510.14
2019-05-05T06:30:33.691Z,100510.77
2019-05-05T06:31:38.347Z,100508.90
2019-05-05T06:32:45.570Z,100505.09
2019-05-05T06:33:49.294Z,100505.92
2019-05-05T06:34:53.615Z,100504.91
2019-05-05T06:35:58.027Z,100506.08
2019-05-05T06:37:04.472Z,100501.97
2019-05-05T06:38:08.672Z,100503.07
2019-05-05T06:39:13.717Z,100506.84
2019-05-05T06:40:19.722Z,100507.38
2019-05-05T06:41:34.863Z,100501.63
2019-05-05T06:42:57.217Z,100507.23
2019-05-05T06:44:19.492Z,100504.19
2019-05-05T06:45:34.394Z,100511.77
2019-05-05T06:46:57.034Z,100512.31
2019-05-05T06:48:01.277Z,100510.92
2019-05-05T06:49:05.584Z,100511.80
2019-05-05T06:50:10.097Z,100508.47
2019-05-05T06:51:14.411Z,100505.48
2019-05-05T06:52:19.224Z,100505.81
2019-05-05T06:53:23.949Z,100516.44
2019-05-05T06:54:28.489Z,100512.06
2019-05-05T06:55:34.150Z,100511.55
2019-05-05T06:56:38.437Z,100509.08
2019-05-05T06:57:44.435Z,100507.47
2019-05-05T06:58:49.821Z,100509.20
2019-05-05T06:59:54.506Z,100505.64
2019-05-05T07:00:58.833Z,100505.97
2019-05-05T07:02:04.199Z,100504.02
2019-05-05T07:03:09.858Z,100503.82
2019-05-05T07:04:14.123Z,100509.45
2019-05-05T07:05:18.325Z,100499.70
2019-05-05T07:06:23.917Z,100494.06
2019-05-05T07:07:29.535Z,100502.02
2019-05-05T07:08:34.772Z,100509.86
2019-05-05T07:09:39.157Z,100498.19
2019-05-05T07:10:44.483Z,100506.02
2019-05-05T07:11:49.106Z,100504.14
2019-05-05T07:12:54.388Z,100506.69
2019-05-05T07:13:59.545Z,100500.01
2019-05-05T07:15:06.070Z,100501.43
2019-05-05T07:16:12.865Z,100502.84
2019-05-05T07:17:17.811Z,100507.12
2019-05-05T07:18:22.082Z,100503.25
2019-05-05T07:19:26.579Z,100509.14
2019-05-05T07:20:30.813Z,100506.64
2019-05-05T07:21:35.234Z,100501.96
2019-05-05T07:22:39.486Z,100503.94
2019-05-05T07:23:44.541Z,100512.05
2019-05-05T07:24:48.936Z,100507.89
2019-05-05T07:25:54.925Z,100503.77
2019-05-05T07:26:59.130Z,100502.70
2019-05-05T07:28:04.220Z,100502.70
2019-05-05T07:29:09.292Z,100504.39
2019-05-05T07:30:13.821Z,100499.13
2019-05-05T07:31:18.276Z,100495.56
2019-05-05T07:32:24.510Z,100502.01
2019-05-05T07:33:29.280Z,100499.23
2019-05-05T07:34:54.661Z,100489.09
2019-05-05T07:36:16.015Z,100502.05
2019-05-05T07:37:20.265Z,100496.20
2019-05-05T07:38:24.540Z,100505.45
2019-05-05T07:39:28.909Z,100506.04
2019-05-05T07:40:34.585Z,100505.77
2019-05-05T07:41:40.642Z,100506.63
2019-05-05T07:42:45.368Z,100496.36
2019-05-05T07:43:49.553Z,100511.21
2019-05-05T07:44:54.704Z,100499.22
2019-05-05T07:46:00.209Z,100512.64
2019-05-05T07:47:05.182Z,100505.41
2019-05-05T07:48:09.609Z,100499.05
2019-05-05T07:49:14.089Z,100501.33
2019-05-05T07:50:28.382Z,100498.00
2019-05-05T07:51:24.356Z,100500.02
2019-05-05T07:52:28.698Z,100504.23
2019-05-05T07:53:33.544Z,100504.57
2019-05-05T07:54:37.916Z,100505.14
2019-05-05T07:55:43.689Z,100510.76
2019-05-05T07:56:48.207Z,100498.76
2019-05-05T07:57:53.827Z,100501.06
2019-05-05T07:58:58.127Z,100503.58
2019-05-05T08:00:02.377Z,100501.92
2019-05-05T08:01:07.328Z,100504.77
2019-05-05T08:02:11.832Z,100503.12
2019-05-05T08:03:16.024Z,100505.94
2019-05-05T08:04:21.281Z,100504.87
2019-05-05T08:05:25.457Z,100504.34
2019-05-05T08:06:29.632Z,100512.51
2019-05-05T08:07:34.148Z,100510.84
2019-05-05T08:08:38.331Z,100504.14
2019-05-05T08:09:44.490Z,100503.32
2019-05-05T08:10:48.941Z,100501.13
2019-05-05T08:11:54.197Z,100501.14
2019-05-05T08:13:00.237Z,100503.98
2019-05-05T08:14:04.481Z,100507.92
2019-05-05T08:15:08.657Z,100510.20
2019-05-05T08:16:21.181Z,100502.95
2019-05-05T08:17:44.621Z,100506.30
2019-05-05T08:19:06.311Z,100510.82
2019-05-05T08:20:15.499Z,100501.91
2019-05-05T08:21:19.666Z,100494.64
2019-05-05T08:22:24.140Z,100500.52
2019-05-05T08:23:38.675Z,100509.20
2019-05-05T08:24:57.656Z,100499.69
2019-05-05T08:26:05.926Z,100510.08
2019-05-05T08:27:30.244Z,100516.52
2019-05-05T08:28:45.042Z,100511.77
2019-05-05T08:29:50.894Z,100506.73
2019-05-05T08:31:05.502Z,100501.97
2019-05-05T08:32:13.462Z,100507.88
2019-05-05T08:33:24.138Z,100508.73
2019-05-05T08:34:28.555Z,100505.37
2019-05-05T08:35:34.394Z,100511.25
2019-05-05T08:36:39.516Z,100511.84
2019-05-05T08:37:45.367Z,100520.52
2019-05-05T08:38:49.613Z,100517.16
2019-05-05T08:39:54.077Z,100522.23
2019-05-05T08:40:58.306Z,100519.44
2019-05-05T08:42:04.291Z,100519.99
2019-05-05T08:43:08.640Z,100510.75
2019-05-05T08:44:14.549Z,100517.19
2019-05-05T08:45:19.200Z,100511.06
2019-05-05T08:46:24.739Z,100512.45
2019-05-05T08:47:29.062Z,100514.70
2019-05-05T08:48:34.147Z,100506.88
2019-05-05T08:49:38.479Z,100504.36
2019-05-05T08:50:43.853Z,100510.23
2019-05-05T08:51:48.261Z,100506.34
2019-05-05T08:52:53.726Z,100504.08
2019-05-05T08:53:58.126Z,100505.50
2019-05-05T08:55:04.529Z,100504.95
2019-05-05T08:56:08.166Z,100506.34
2019-05-05T08:57:14.610Z,100508.30
2019-05-05T08:58:19.026Z,100509.95
2019-05-05T08:59:24.249Z,100505.78
2019-05-05T09:00:28.443Z,100508.58
2019-05-05T09:01:34.302Z,100507.17
2019-05-05T09:02:38.828Z,100505.50
2019-05-05T09:03:44.343Z,100505.77
2019-05-05T09:04:48.731Z,100506.88
2019-05-05T09:05:54.246Z,100502.16
2019-05-05T09:06:58.673Z,100499.35
2019-05-05T09:08:04.535Z,100500.46
2019-05-05T09:09:10.089Z,100504.09
2019-05-05T09:10:14.402Z,100511.39
2019-05-05T09:11:18.648Z,100506.05
2019-05-05T09:12:23.589Z,100507.47
2019-05-05T09:13:28.359Z,100510.27
2019-05-05T09:14:34.510Z,100510.81
2019-05-05T09:15:38.528Z,100502.97
2019-05-05T09:16:44.757Z,100510.81
2019-05-05T09:17:49.164Z,100511.38
2019-05-05T09:18:57.978Z,100519.23
2019-05-05T09:20:04.381Z,100517.27
2019-05-05T09:21:08.181Z,100515.31
2019-05-05T09:22:13.983Z,100512.52
2019-05-05T09:23:18.343Z,100531.84
2019-05-05T09:24:27.176Z,100522.06
2019-05-05T09:25:34.125Z,100535.22
2019-05-05T09:26:43.729Z,100536.63
2019-05-05T09:27:49.639Z,100536.88
2019-05-05T09:28:55.545Z,100538.56
2019-05-05T09:30:00.094Z,100523.72
2019-05-05T09:31:04.668Z,100532.09
2019-05-05T09:32:08.934Z,100534.34
2019-05-05T09:33:14.219Z,100536.59
2019-05-05T09:34:18.947Z,100533.52
2019-05-05T09:35:24.126Z,100540.80
2019-05-05T09:36:28.271Z,100536.88
2019-05-05T09:37:33.985Z,100542.20
2019-05-05T09:38:38.232Z,100543.31
2019-05-05T09:39:43.695Z,100540.23
2019-05-05T09:40:48.047Z,100541.91
2019-05-05T09:41:53.634Z,100545.00
2019-05-05T09:42:58.173Z,100536.88
2019-05-05T09:44:04.240Z,100531.55
2019-05-05T09:45:08.876Z,100536.33
2019-05-05T09:46:14.377Z,100540.52
2019-05-05T09:47:18.745Z,100538.00
2019-05-05T09:48:24.308Z,100539.96
2019-05-05T09:49:28.507Z,100535.20
2019-05-05T09:50:34.168Z,100538.84
2019-05-05T09:51:38.508Z,100533.52
2019-05-05T09:52:44.313Z,100539.95
2019-05-05T09:53:48.827Z,100536.58
2019-05-05T09:54:54.433Z,100535.20
2019-05-05T09:55:58.893Z,100535.20
2019-05-05T09:57:04.438Z,100539.67
2019-05-05T09:58:09.847Z,100539.95
2019-05-05T09:59:14.064Z,100531.82
2019-05-05T10:00:18.343Z,100543.60
2019-05-05T10:01:24.482Z,100539.70
2019-05-05T10:02:28.381Z,100537.74
2019-05-05T10:03:34.091Z,100529.33
2019-05-05T10:04:38.437Z,100539.68
2019-05-05T10:05:43.248Z,100539.95
2019-05-05T10:06:47.966Z,100527.32
2019-05-05T10:07:54.381Z,100525.63
2019-05-05T10:08:58.235Z,100532.31
2019-05-05T10:10:04.547Z,100534.28
2019-05-05T10:11:08.326Z,100524.42
2019-05-05T10:12:12.637Z,100530.61
2019-05-05T10:13:16.820Z,100532.81
2019-05-05T10:14:20.995Z,100533.08
2019-05-05T10:15:25.308Z,100537.84
2019-05-05T10:16:29.556Z,100529.97
2019-05-05T10:17:33.781Z,100528.02
2019-05-05T10:18:37.959Z,100535.33
2019-05-05T10:19:43.945Z,100535.05
2019-05-05T10:20:49.335Z,100531.09
2019-05-05T10:21:53.531Z,100541.81
2019-05-05T10:22:57.881Z,100524.39
2019-05-05T10:24:10.301Z,100530.56
2019-05-05T10:25:34.439Z,100530.55
2019-05-05T10:26:38.666Z,100537.86
2019-05-05T10:27:47.532Z,100532.79
2019-05-05T10:28:48.934Z,100543.45
2019-05-05T10:29:54.748Z,100539.23
2019-05-05T10:30:59.152Z,100536.98
2019-05-05T10:32:04.737Z,100539.24
2019-05-05T10:33:10.339Z,100540.06
2019-05-05T10:34:18.919Z,100526.03
2019-05-05T10:35:23.835Z,100526.61
2019-05-05T10:36:28.208Z,100530.28
2019-05-05T10:37:34.486Z,100532.23
2019-05-05T10:38:41.101Z,100529.16
2019-05-05T10:39:49.466Z,100529.69
2019-05-05T10:40:53.807Z,100531.92
2019-05-05T10:41:58.171Z,100534.70
2019-05-05T10:43:04.305Z,100534.70
2019-05-05T10:44:08.215Z,100534.36
2019-05-05T10:45:13.568Z,100532.93
2019-05-05T10:46:17.752Z,100529.52
2019-05-05T10:47:24.029Z,100534.00
2019-05-05T10:48:27.863Z,100534.55
2019-05-05T10:49:33.678Z,100527.48
2019-05-05T10:50:37.998Z,100527.72
2019-05-05T10:51:43.940Z,100523.78
2019-05-05T10:52:48.559Z,100536.42
2019-05-05T10:53:54.482Z,100534.70
2019-05-05T10:54:58.933Z,100533.56
2019-05-05T10:56:04.429Z,100518.38
2019-05-05T10:57:08.798Z,100527.05
2019-05-05T10:58:13.787Z,100536.29
2019-05-05T10:59:18.160Z,100529.78
2019-05-05T11:00:44.828Z,100523.81
2019-05-05T11:01:49.040Z,100519.86
2019-05-05T11:02:53.218Z,100517.57
2019-05-05T11:03:59.035Z,100517.84
2019-05-05T11:05:05.048Z,100517.78
2019-05-05T11:06:09.223Z,100519.46
2019-05-05T11:07:14.521Z,100518.84
2019-05-05T11:08:19.034Z,100515.96
2019-05-05T11:09:24.398Z,100512.89
2019-05-05T11:10:33.909Z,100510.28
2019-05-05T11:11:38.228Z,100509.98
2019-05-05T11:12:44.378Z,100509.95
2019-05-05T11:13:48.850Z,100510.15
2019-05-05T11:14:54.517Z,100521.94
2019-05-05T11:15:58.922Z,100508.64
2019-05-05T11:17:04.122Z,100509.14
2019-05-05T11:18:08.585Z,100506.79
2019-05-05T11:19:13.694Z,100505.04
2019-05-05T11:20:19.198Z,100505.84
2019-05-05T11:21:23.735Z,100497.70
2019-05-05T11:22:28.095Z,100499.41
2019-05-05T11:23:34.622Z,100498.88
2019-05-05T11:24:38.435Z,100499.95
2019-05-05T11:25:44.227Z,100492.95
2019-05-05T11:26:48.742Z,100498.58
2019-05-05T11:27:54.131Z,100504.44
2019-05-05T11:28:58.515Z,100494.81
2019-05-05T11:30:14.402Z,100481.61
2019-05-05T11:31:18.684Z,100481.61
2019-05-05T11:32:41.067Z,100488.88
2019-05-05T11:33:54.193Z,100488.56
2019-05-05T11:34:58.632Z,100489.62
2019-05-05T11:36:04.614Z,100489.55
2019-05-05T11:37:10.441Z,100501.61
2019-05-05T11:38:14.685Z,100496.77
2019-05-05T11:39:19.053Z,100497.53
2019-05-05T11:40:32.320Z,100501.74
2019-05-05T11:41:36.570Z,100487.75
2019-05-05T11:42:40.749Z,100488.55
2019-05-05T11:43:44.944Z,100494.48
2019-05-05T11:44:49.207Z,100489.16
2019-05-05T11:45:54.401Z,100495.06
2019-05-05T11:46:58.866Z,100491.97
2019-05-05T11:48:03.152Z,100492.55
2019-05-05T11:49:07.347Z,100493.12
2019-05-05T11:50:11.686Z,100495.45
2019-05-05T11:51:15.863Z,100500.28
2019-05-05T11:52:20.127Z,100496.02
2019-05-05T11:53:25.178Z,100507.32
2019-05-05T11:54:29.403Z,100508.77
2019-05-05T11:55:33.683Z,100498.08
2019-05-05T11:56:37.933Z,100500.28
2019-05-05T11:57:43.770Z,100503.48
2019-05-05T11:58:48.181Z,100502.38
2019-05-05T11:59:54.003Z,100495.87
2019-05-05T12:00:59.162Z,100502.27
2019-05-05T12:02:03.876Z,100494.13
2019-05-05T12:03:08.110Z,100506.45
2019-05-05T12:04:14.549Z,100500.50
2019-05-05T12:05:18.837Z,100502.22
2019-05-05T12:06:24.671Z,100505.61
2019-05-05T12:07:29.037Z,100502.30
2019-05-05T12:08:34.574Z,100513.11
2019-05-05T12:09:40.612Z,100509.99
2019-05-05T12:10:46.544Z,100506.94
2019-05-05T12:11:50.835Z,100506.98
2019-05-05T12:12:57.710Z,100506.72
2019-05-05T12:14:06.419Z,100516.80
2019-05-05T12:15:10.758Z,100512.88
2019-05-05T12:16:16.761Z,100510.14
2019-05-05T12:17:36.319Z,100508.30
2019-05-05T12:18:40.661Z,100512.52
2019-05-05T12:19:48.378Z,100509.11
2019-05-05T12:20:50.971Z,100508.73
2019-05-05T12:21:55.364Z,100502.03
2019-05-05T12:22:59.568Z,100501.96
2019-05-05T12:24:08.056Z,100505.30
2019-05-05T12:25:30.270Z,100494.39
2019-05-05T12:26:54.230Z,100506.83
2019-05-05T12:28:04.364Z,100505.91
2019-05-05T12:29:09.815Z,100512.08
2019-05-05T12:30:14.461Z,100502.23
2019-05-05T12:31:29.176Z,100502.91
2019-05-05T12:32:34.802Z,100506.70
2019-05-05T12:33:40.307Z,100510.02
2019-05-05T12:34:46.095Z,100509.70
2019-05-05T12:35:50.335Z,100507.70
2019-05-05T12:36:54.774Z,100508.23
2019-05-05T12:37:59.017Z,100505.38